Time;durP1;ratioP1;P1;durP2;ratioP2;P2;SDS_P1;SDS_P2;PMS_P1;PMS_P2;Temp;Humidity;BMP_temperature;BMP_pressure;BME280_temperature;BME280_humidity;BME280_pressure;Samples;Min_cycle;Max_cycle;Signal;HPM_P1;HPM_P2
2021/11/13 00:03:57;;;;;;;27.98;15.85;;;9.50;99.90;;;;;;8426574;28;20047;-74
2021/11/13 00:07:59;;;;;;;24.73;14.35;;;9.50;99.90;;;;;;8425964;28;20048;-73
2021/11/13 00:12:01;;;;;;;24.73;15.50;;;9.50;99.90;;;;;;8423635;28;20105;-74
2021/11/13 00:16:02;;;;;;;26.50;15.05;;;9.50;99.90;;;;;;8421170;28;20419;-73
2021/11/13 00:20:05;;;;;;;22.05;12.70;;;9.40;99.90;;;;;;8422060;28;20377;-74
2021/11/13 00:24:07;;;;;;;22.42;13.93;;;9.50;99.90;;;;;;8416143;28;20056;-73
2021/11/13 00:28:09;;;;;;;25.80;14.05;;;9.40;99.90;;;;;;8420928;28;20141;-74
2021/11/13 00:32:11;;;;;;;23.48;14.00;;;9.40;99.90;;;;;;8437801;28;20407;-74
2021/11/13 00:36:13;;;;;;;24.38;14.55;;;9.50;99.90;;;;;;8418631;28;20048;-73
2021/11/13 00:40:18;;;;;;;25.63;14.27;;;9.50;99.90;;;;;;8425770;28;20041;-73
2021/11/13 00:44:20;;;;;;;22.73;14.38;;;9.50;99.90;;;;;;8426298;28;20530;-73
2021/11/13 00:48:21;;;;;;;23.65;15.10;;;9.60;99.90;;;;;;8437268;28;20048;-73
2021/11/13 00:52:23;;;;;;;23.98;13.85;;;9.60;99.90;;;;;;8417502;28;20055;-73
2021/11/13 00:56:26;;;;;;;24.67;13.70;;;9.60;99.90;;;;;;8452950;27;20048;-73
2021/11/13 01:00:27;;;;;;;22.30;12.65;;;9.60;99.90;;;;;;8410941;28;20036;-73
2021/11/13 01:04:29;;;;;;;24.52;13.07;;;9.60;99.90;;;;;;8420479;28;20380;-73
2021/11/13 01:08:31;;;;;;;22.65;13.70;;;9.70;99.90;;;;;;8423936;28;20052;-73
2021/11/13 01:12:34;;;;;;;22.15;13.98;;;9.70;99.90;;;;;;8415852;28;20048;-74
2021/11/13 01:16:36;;;;;;;25.38;13.95;;;9.70;99.90;;;;;;8422080;28;20048;-74
2021/11/13 01:20:38;;;;;;;27.45;15.00;;;9.80;99.90;;;;;;8420974;28;20044;-73
2021/11/13 01:24:40;;;;;;;21.73;13.15;;;9.80;99.90;;;;;;8421436;28;20444;-73
2021/11/13 01:28:42;;;;;;;21.13;13.88;;;9.80;99.90;;;;;;8439049;27;20044;-73
2021/11/13 01:32:44;;;;;;;22.20;14.48;;;9.90;99.90;;;;;;8414368;28;20052;-73
2021/11/13 01:36:46;;;;;;;24.58;14.07;;;9.90;99.90;;;;;;8413312;28;20051;-73
2021/11/13 01:40:48;;;;;;;24.13;14.57;;;9.90;99.90;;;;;;8422415;28;20051;-73
2021/11/13 01:44:50;;;;;;;21.80;13.48;;;9.90;99.90;;;;;;8422610;28;20044;-73
2021/11/13 01:48:51;;;;;;;20.02;12.40;;;9.90;99.90;;;;;;8412457;28;20487;-73
2021/11/13 01:52:54;;;;;;;23.38;13.35;;;9.90;99.90;;;;;;8418538;28;20040;-73
2021/11/13 01:56:55;;;;;;;20.10;12.27;;;10.00;99.90;;;;;;8417483;28;20056;-73
2021/11/13 02:00:58;;;;;;;25.13;14.32;;;10.00;99.90;;;;;;8415966;28;20483;-73
2021/11/13 02:05:00;;;;;;;23.15;14.77;;;10.00;99.90;;;;;;8425858;28;20104;-73
2021/11/13 02:09:04;;;;;;;23.27;13.68;;;10.00;99.90;;;;;;8416914;28;20507;-73
2021/11/13 02:13:05;;;;;;;21.33;12.90;;;10.00;99.90;;;;;;8421753;28;20048;-73
2021/11/13 02:17:07;;;;;;;22.98;14.27;;;10.00;99.90;;;;;;8423019;28;20040;-74
2021/11/13 02:21:10;;;;;;;26.17;16.63;;;10.00;99.90;;;;;;8418763;28;20384;-74
2021/11/13 02:25:15;;;;;;;23.20;14.23;;;10.00;99.90;;;;;;8425266;28;20153;-73
2021/11/13 02:29:17;;;;;;;18.50;12.25;;;10.00;99.90;;;;;;8410739;28;20354;-74
2021/11/13 02:33:19;;;;;;;18.20;12.35;;;10.00;99.90;;;;;;8410919;28;20045;-73
2021/11/13 02:37:27;;;;;;;25.90;15.50;;;10.00;99.90;;;;;;8420270;28;20500;-73
2021/11/13 02:41:29;;;;;;;22.45;13.32;;;10.10;99.90;;;;;;8430501;28;20089;-73
2021/11/13 02:45:32;;;;;;;23.45;12.32;;;10.10;99.90;;;;;;8413392;28;20048;-73
2021/11/13 02:49:34;;;;;;;20.30;12.93;;;10.10;99.90;;;;;;8427012;28;20484;-73
2021/11/13 02:53:36;;;;;;;27.45;15.00;;;10.10;99.90;;;;;;8419342;28;20044;-73
2021/11/13 02:57:40;;;;;;;21.33;13.85;;;10.10;99.90;;;;;;8415138;28;20126;-73
2021/11/13 03:01:42;;;;;;;17.77;12.20;;;10.10;99.90;;;;;;8416933;28;20105;-73
2021/11/13 03:05:57;;;;;;;18.60;12.38;;;10.10;99.90;;;;;;8424096;28;20048;-74
2021/11/13 03:09:59;;;;;;;21.73;13.45;;;10.10;99.90;;;;;;8416190;28;20054;-73
2021/11/13 03:14:00;;;;;;;23.67;15.00;;;10.20;99.90;;;;;;8431431;28;20048;-73
2021/11/13 03:18:02;;;;;;;23.80;14.10;;;10.20;99.90;;;;;;8430250;28;20047;-73
2021/11/13 03:22:05;;;;;;;22.88;14.68;;;10.20;99.90;;;;;;8422400;28;20106;-73
2021/11/13 03:26:16;;;;;;;26.10;14.13;;;10.20;99.90;;;;;;8436498;28;20075;-73
2021/11/13 03:30:19;;;;;;;23.00;14.63;;;10.20;99.90;;;;;;8410939;28;20518;-73
2021/11/13 03:34:21;;;;;;;20.95;13.40;;;10.20;99.90;;;;;;8423922;28;20052;-73
2021/11/13 03:38:24;;;;;;;22.33;14.30;;;10.30;99.90;;;;;;8431418;28;20056;-73
2021/11/13 03:42:29;;;;;;;26.08;13.63;;;10.30;99.90;;;;;;8428663;28;20045;-74
2021/11/13 03:46:31;;;;;;;19.23;12.80;;;10.30;99.90;;;;;;8425066;28;20380;-73
2021/11/13 03:50:33;;;;;;;22.15;13.65;;;10.30;99.90;;;;;;8442419;28;20043;-73
2021/11/13 03:54:37;;;;;;;27.83;14.20;;;10.30;99.90;;;;;;8427018;28;20047;-73
2021/11/13 03:58:39;;;;;;;20.58;12.82;;;10.40;99.90;;;;;;8411493;28;20105;-73
2021/11/13 04:02:44;;;;;;;21.38;13.63;;;10.30;99.90;;;;;;8423896;28;20051;-73
2021/11/13 04:06:46;;;;;;;19.60;13.02;;;10.30;99.90;;;;;;8427496;28;20092;-75
2021/11/13 04:10:48;;;;;;;20.50;12.75;;;10.40;99.90;;;;;;8420618;28;20044;-73
2021/11/13 04:14:50;;;;;;;19.58;12.38;;;10.40;99.90;;;;;;8425929;28;20051;-73
2021/11/13 04:18:52;;;;;;;22.65;12.90;;;10.40;99.90;;;;;;8437734;28;20077;-73
2021/11/13 04:22:53;;;;;;;21.52;12.15;;;10.40;99.90;;;;;;8418990;28;20056;-73
2021/11/13 04:26:55;;;;;;;19.95;12.63;;;10.40;99.90;;;;;;8420416;28;20479;-72
2021/11/13 04:30:57;;;;;;;20.48;12.18;;;10.40;99.90;;;;;;8420947;28;20067;-73
2021/11/13 04:39:03;;;;;;;;;;;10.50;99.90;;;;;;8415140;28;20211;-72
2021/11/13 04:43:04;;;;;;;;;;;10.50;99.90;;;;;;8419504;28;19930;-72
2021/11/13 04:47:06;;;;;;;;;;;10.40;99.90;;;;;;8421715;28;20367;-72
2021/11/13 04:51:08;;;;;;;;;;;10.40;99.90;;;;;;8427679;28;20018;-72
2021/11/13 04:55:10;;;;;;;;;;;10.50;99.90;;;;;;8422731;28;19924;-72
2021/11/13 04:59:13;;;;;;;;;;;10.50;99.90;;;;;;8411242;28;19969;-72
2021/11/13 05:03:14;;;;;;;;;;;10.50;99.90;;;;;;8421430;28;19973;-72
2021/11/13 05:07:16;;;;;;;;;;;10.50;99.90;;;;;;8431202;28;19966;-73
2021/11/13 05:11:18;;;;;;;;;;;10.50;99.90;;;;;;8419348;28;19927;-72
2021/11/13 05:15:19;;;;;;;;;;;10.60;99.90;;;;;;8421323;28;19920;-72
2021/11/13 05:19:21;;;;;;;;;;;10.60;99.90;;;;;;8432983;28;19943;-72
2021/11/13 05:23:22;;;;;;;;;;;10.60;99.90;;;;;;8429299;28;19964;-73
2021/11/13 05:27:24;;;;;;;;;;;10.60;99.90;;;;;;8430259;28;20425;-73
2021/11/13 05:31:26;;;;;;;;;;;10.60;99.90;;;;;;8422047;28;19924;-73
2021/11/13 05:35:28;;;;;;;;;;;10.60;99.90;;;;;;8418561;28;19946;-73
2021/11/13 05:39:29;;;;;;;;;;;10.60;99.90;;;;;;8420721;28;19920;-73
2021/11/13 05:43:31;;;;;;;;;;;10.60;99.90;;;;;;8429937;28;19924;-73
2021/11/13 05:47:33;;;;;;;;;;;10.60;99.90;;;;;;8415024;28;19923;-73
2021/11/13 05:51:35;;;;;;;;;;;10.60;99.90;;;;;;8414468;28;20295;-73
2021/11/13 05:55:36;;;;;;;;;;;10.60;99.90;;;;;;8422736;28;19947;-72
2021/11/13 05:59:38;;;;;;;;;;;10.60;99.90;;;;;;8411448;28;19919;-73
2021/11/13 06:03:40;;;;;;;;;;;10.60;99.90;;;;;;8424118;28;19943;-73
2021/11/13 06:07:42;;;;;;;;;;;10.60;99.90;;;;;;8420329;28;19920;-73
2021/11/13 06:11:43;;;;;;;;;;;10.60;99.90;;;;;;8421593;28;20379;-74
2021/11/13 06:15:45;;;;;;;;;;;10.60;99.90;;;;;;8426104;28;20312;-73
2021/11/13 06:19:47;;;;;;;;;;;10.60;99.90;;;;;;8416840;28;20035;-73
2021/11/13 06:23:48;;;;;;;;;;;10.60;99.90;;;;;;8428141;28;19920;-73
2021/11/13 06:27:50;;;;;;;;;;;10.60;99.90;;;;;;8416503;28;19925;-73
2021/11/13 06:31:52;;;;;;;;;;;10.60;99.90;;;;;;8421165;28;19946;-73
2021/11/13 06:35:54;;;;;;;;;;;10.60;99.90;;;;;;8438035;28;19965;-73
2021/11/13 06:39:55;;;;;;;;;;;10.60;99.90;;;;;;8422341;28;20275;-73
2021/11/13 06:43:58;;;;;;;;;;;10.60;99.90;;;;;;8422879;28;19920;-74
2021/11/13 06:48:00;;;;;;;;;;;10.60;99.90;;;;;;8430715;28;19931;-73
2021/11/13 06:52:02;;;;;;;;;;;10.60;99.90;;;;;;8426131;28;20255;-73
2021/11/13 06:56:04;;;;;;;;;;;10.60;99.90;;;;;;8418952;28;19994;-72
2021/11/13 07:00:07;;;;;;;;;;;10.60;99.90;;;;;;8418139;28;19923;-73
2021/11/13 07:04:09;;;;;;;;;;;10.60;99.90;;;;;;8434187;27;19924;-73
2021/11/13 07:08:10;;;;;;;;;;;10.60;99.90;;;;;;8428577;28;19974;-72
2021/11/13 07:12:12;;;;;;;;;;;10.60;99.90;;;;;;8428088;28;19927;-73
2021/11/13 07:16:14;;;;;;;;;;;10.60;99.90;;;;;;8422289;28;19947;-73
2021/11/13 07:20:16;;;;;;;;;;;10.70;99.90;;;;;;8431086;28;19927;-72
2021/11/13 07:24:18;;;;;;;;;;;10.70;99.90;;;;;;8429951;28;19920;-73
2021/11/13 07:28:26;;;;;;;;;;;10.70;99.90;;;;;;8412719;28;19920;-73
2021/11/13 07:32:28;;;;;;;;;;;10.70;99.90;;;;;;8425331;28;20280;-73
2021/11/13 07:36:30;;;;;;;;;;;10.70;99.90;;;;;;8420884;28;20411;-73
2021/11/13 07:40:32;;;;;;;;;;;10.70;99.90;;;;;;8442829;27;20108;-73
2021/11/13 07:44:34;;;;;;;;;;;10.80;99.90;;;;;;8428263;28;19927;-73
2021/11/13 07:48:35;;;;;;;;;;;10.80;99.90;;;;;;8421859;28;20420;-73
2021/11/13 07:52:37;;;;;;;;;;;10.80;99.90;;;;;;8412105;28;19982;-73
2021/11/13 07:56:39;;;;;;;;;;;10.80;99.90;;;;;;8391123;28;19924;-73
2021/11/13 08:00:46;;;;;;;;;;;10.80;99.90;;;;;;8388980;28;19926;-73
2021/11/13 08:04:47;;;;;;;;;;;10.90;99.90;;;;;;8392003;28;20272;-73
2021/11/13 08:08:49;;;;;;;;;;;10.90;99.90;;;;;;8390690;28;19920;-74
2021/11/13 08:12:51;;;;;;;20.65;10.68;;;10.90;99.90;;;;;;8391300;28;19996;-73
2021/11/13 08:16:53;;;;;;;;;;;10.90;99.90;;;;;;8390191;28;20041;-73
2021/11/13 08:20:56;;;;;;;;;;;10.90;99.90;;;;;;8388620;28;19928;-73
2021/11/13 08:24:58;;;;;;;;;;;10.90;99.90;;;;;;8391471;28;19924;-73
2021/11/13 08:29:00;;;;;;;;;;;11.00;99.90;;;;;;8394613;28;19920;-72
2021/11/13 08:33:02;;;;;;;;;;;10.90;99.90;;;;;;8391141;28;19920;-73
2021/11/13 08:37:04;;;;;;;;;;;11.00;99.90;;;;;;8389130;28;19924;-73
2021/11/13 08:41:06;;;;;;;;;;;11.10;99.90;;;;;;8391960;28;19931;-73
2021/11/13 08:45:08;;;;;;;;;;;11.20;99.90;;;;;;8432733;27;19920;-73
2021/11/13 08:49:10;;;;;;;;;;;11.20;99.90;;;;;;8400298;28;19997;-73
2021/11/13 08:53:12;;;;;;;;;;;11.20;99.90;;;;;;8388605;28;19924;-73
2021/11/13 08:57:14;;;;;;;;;;;11.30;99.90;;;;;;8393429;28;19932;-73
2021/11/13 09:01:16;;;;;;;;;;;11.30;99.90;;;;;;8400062;28;19982;-74
2021/11/13 09:05:18;;;;;;;;;;;11.40;99.90;;;;;;8388891;28;20295;-74
2021/11/13 09:09:19;;;;;;;;;;;11.40;99.90;;;;;;8385258;28;19978;-73
2021/11/13 09:13:23;;;;;;;;;;;11.50;99.90;;;;;;8389553;28;19943;-73
2021/11/13 09:17:25;;;;;;;;;;;11.50;99.90;;;;;;8386660;28;19928;-74
2021/11/13 09:21:29;;;;;;;;;;;11.60;99.90;;;;;;8388828;28;20250;-73
2021/11/13 09:25:31;;;;;;;;;;;11.60;99.90;;;;;;8389234;28;19936;-73
2021/11/13 09:29:32;;;;;;;;;;;11.70;99.90;;;;;;8386587;28;20158;-73
2021/11/13 09:33:34;;;;;;;;;;;11.80;99.90;;;;;;8388155;28;19931;-73
2021/11/13 09:37:38;;;;;;;;;;;11.80;99.90;;;;;;8390418;28;20031;-73
2021/11/13 09:41:40;;;;;;;11.02;5.07;;;11.90;99.90;;;;;;8391314;28;19931;-74
2021/11/13 09:45:42;;;;;;;13.35;5.50;;;11.90;99.90;;;;;;8389618;28;20399;-73
2021/11/13 09:49:44;;;;;;;10.43;4.70;;;12.00;99.90;;;;;;8394288;28;20106;-73
2021/11/13 09:53:47;;;;;;;10.40;4.57;;;12.00;99.90;;;;;;8396134;28;20056;-73
2021/11/13 09:57:49;;;;;;;;;;;12.00;99.90;;;;;;8398705;28;20045;-73
2021/11/13 10:01:52;;;;;;;;;;;12.10;99.90;;;;;;8397615;28;20018;-73
2021/11/13 10:05:55;;;;;;;;;;;12.20;99.90;;;;;;8396979;28;20017;-73
2021/11/13 10:09:57;;;;;;;;;;;12.30;99.90;;;;;;8415227;28;19928;-74
2021/11/13 10:13:59;;;;;;;;;;;12.30;99.90;;;;;;8394811;28;19931;-73
2021/11/13 10:18:10;;;;;;;;;;;12.30;99.90;;;;;;8391968;28;19928;-73
2021/11/13 10:22:11;;;;;;;;;;;12.30;99.90;;;;;;8396928;28;19932;-73
2021/11/13 10:26:21;;;;;;;;;;;12.30;99.90;;;;;;8394133;28;20304;-73
2021/11/13 10:30:23;;;;;;;;;;;12.30;99.90;;;;;;8412735;27;19992;-73
2021/11/13 10:34:27;;;;;;;;;;;12.30;99.90;;;;;;8398028;28;20831;-73
2021/11/13 10:38:28;;;;;;;;;;;12.40;99.90;;;;;;8403984;28;19920;-73
2021/11/13 10:42:30;;;;;;;;;;;12.40;99.90;;;;;;8400142;28;19924;-73
2021/11/13 10:46:32;;;;;;;8.77;3.65;;;12.50;99.90;;;;;;8398848;28;20365;-74
2021/11/13 10:50:40;;;;;;;8.68;3.63;;;12.60;99.90;;;;;;8396872;28;20048;-73
2021/11/13 10:54:48;;;;;;;8.43;4.50;;;12.60;99.90;;;;;;8398311;28;20040;-73
2021/11/13 10:58:58;;;;;;;8.40;4.30;;;12.70;99.90;;;;;;8398339;28;20048;-74
2021/11/13 11:03:04;;;;;;;7.72;3.67;;;12.80;99.90;;;;;;8396778;28;20496;-73
2021/11/13 11:07:15;;;;;;;6.72;3.90;;;12.80;99.90;;;;;;8395687;28;20052;-73
2021/11/13 11:11:35;;;;;;;7.45;3.90;;;12.90;99.90;;;;;;8396401;28;21782;-74
2021/11/13 11:15:41;;;;;;;7.25;3.85;;;12.90;99.90;;;;;;8398637;28;20454;-73
2021/11/13 11:19:47;;;;;;;7.97;4.70;;;12.90;99.90;;;;;;8398237;28;20044;-73
2021/11/13 11:24:14;;;;;;;8.90;4.05;;;12.90;99.90;;;;;;8394485;28;20056;-73
2021/11/13 11:28:16;;;;;;;7.53;4.13;;;12.80;99.90;;;;;;8395924;28;20048;-73
2021/11/13 11:32:21;;;;;;;8.75;3.90;;;12.90;99.90;;;;;;8393562;28;20064;-73
2021/11/13 11:36:31;;;;;;;12.35;4.03;;;12.90;99.90;;;;;;8397689;28;20056;-73
2021/11/13 11:40:37;;;;;;;8.45;3.83;;;12.90;99.90;;;;;;8392138;28;20051;-73
2021/11/13 11:44:40;;;;;;;;;;;13.00;99.90;;;;;;8425459;27;19977;-73
2021/11/13 11:48:42;;;;;;;;;;;13.10;99.90;;;;;;8394505;28;19929;-72
2021/11/13 11:52:44;;;;;;;;;;;13.20;99.90;;;;;;8396909;28;19925;-73
2021/11/13 11:56:46;;;;;;;;;;;13.40;99.90;;;;;;8393234;28;19936;-73
2021/11/13 12:00:53;;;;;;;;;;;13.40;99.90;;;;;;8396421;28;19928;-73
2021/11/13 12:05:03;;;;;;;;;;;13.40;99.90;;;;;;8392999;28;20342;-73
2021/11/13 12:09:05;;;;;;;;;;;13.40;99.90;;;;;;8402337;28;20394;-73
2021/11/13 12:13:09;;;;;;;;;;;13.40;99.90;;;;;;8392376;28;19924;-73
2021/11/13 12:17:30;;;;;;;7.10;3.53;;;13.50;99.90;;;;;;8392127;28;19982;-73
2021/11/13 12:21:32;;;;;;;8.30;4.40;;;13.70;99.90;;;;;;8393620;28;20055;-72
2021/11/13 12:25:38;;;;;;;;;;;14.30;99.90;;;;;;8387232;28;20045;-73
2021/11/13 12:29:50;;;;;;;;;;;15.00;99.90;;;;;;8400621;28;19978;-72
2021/11/13 12:34:00;;;;;;;;;;;15.90;99.90;;;;;;8401647;28;19920;-73
2021/11/13 12:38:31;;;;;;;;;;;16.90;99.90;;;;;;8387579;28;20387;-73
2021/11/13 12:42:33;;;;;;;;;;;17.40;99.90;;;;;;8387224;28;19921;-73
2021/11/13 12:46:45;;;;;;;;;;;17.40;99.90;;;;;;8386421;28;19928;-73
2021/11/13 12:50:47;;;;;;;;;;;17.10;99.90;;;;;;8394367;28;19920;-72
2021/11/13 12:54:58;;;;;;;;;;;16.60;99.90;;;;;;8398510;28;19920;-73
2021/11/13 12:59:00;;;;;;;;;;;16.20;99.90;;;;;;8394296;28;19936;-73
2021/11/13 13:03:04;;;;;;;;;;;15.90;99.90;;;;;;8389338;28;20030;-72
2021/11/13 13:07:06;;;;;;;;;;;15.50;99.90;;;;;;8388805;28;20302;-72
2021/11/13 13:11:09;;;;;;;;;;;15.20;99.90;;;;;;8387830;28;19998;-73
2021/11/13 13:15:17;;;;;;;;;;;15.00;99.90;;;;;;8386019;28;19920;-73
2021/11/13 13:19:26;;;;;;;;;;;14.80;99.90;;;;;;8387721;28;19927;-73
2021/11/13 13:23:28;;;;;;;;;;;14.80;99.90;;;;;;8385197;28;19920;-73
2021/11/13 13:27:30;;;;;;;;;;;14.70;99.90;;;;;;8386735;28;19924;-73
2021/11/13 13:31:32;;;;;;;;;;;14.60;99.90;;;;;;8390393;28;19927;-72
2021/11/13 13:35:36;;;;;;;;;;;14.50;99.90;;;;;;8403703;28;20343;-73
2021/11/13 13:39:38;;;;;;;;;;;14.40;99.90;;;;;;8401741;28;19920;-73
2021/11/13 13:43:43;;;;;;;;;;;14.30;99.90;;;;;;8388184;28;20346;-72
2021/11/13 13:47:46;;;;;;;;;;;14.30;99.90;;;;;;8386217;28;19924;-73
2021/11/13 13:51:56;;;;;;;;;;;14.20;99.90;;;;;;8390217;28;19989;-72
2021/11/13 13:55:58;;;;;;;;;;;14.10;99.90;;;;;;8384902;28;19920;-73
2021/11/13 14:00:02;;;;;;;;;;;14.10;99.90;;;;;;8385422;28;19982;-73
2021/11/13 14:04:08;;;;;;;;;;;14.00;99.90;;;;;;8386215;28;19924;-73
2021/11/13 14:08:11;;;;;;;;;;;14.00;99.90;;;;;;8396082;28;20053;-73
2021/11/13 14:12:14;;;;;;;;;;;14.00;99.90;;;;;;8388745;28;20019;-73
2021/11/13 14:16:15;;;;;;;;;;;13.90;99.90;;;;;;8382758;28;20599;-72
2021/11/13 14:20:19;;;;;;;;;;;13.90;99.90;;;;;;8399205;28;20297;-73
2021/11/13 14:24:25;;;;;;;;;;;13.80;99.90;;;;;;8392320;28;19928;-72
2021/11/13 14:28:38;;;;;;;;;;;13.80;99.90;;;;;;8385973;28;19920;-72
2021/11/13 14:32:48;;;;;;;;;;;13.80;99.90;;;;;;8392994;28;19935;-73
2021/11/13 14:36:55;;;;;;;;;;;13.80;99.90;;;;;;8393355;28;19920;-73
2021/11/13 14:40:58;;;;;;;;;;;13.70;99.90;;;;;;8400485;28;19927;-72
2021/11/13 14:45:06;;;;;;;;;;;13.70;99.90;;;;;;8396309;28;20403;-73
2021/11/13 14:49:08;;;;;;;;;;;13.70;99.90;;;;;;8412420;27;19928;-73
2021/11/13 14:53:11;;;;;;;;;;;13.70;99.90;;;;;;8395988;28;19920;-73
2021/11/13 14:57:13;;;;;;;;;;;13.70;99.90;;;;;;8394014;28;19927;-73
2021/11/13 15:01:22;;;;;;;;;;;13.70;99.90;;;;;;8393251;28;20371;-73
2021/11/13 15:05:24;;;;;;;;;;;13.60;99.90;;;;;;8394087;28;20271;-73
2021/11/13 15:09:26;;;;;;;;;;;13.60;99.90;;;;;;8395550;28;20272;-73
2021/11/13 15:13:29;;;;;;;;;;;13.60;99.90;;;;;;8411741;28;19935;-73
2021/11/13 15:17:32;;;;;;;;;;;13.50;99.90;;;;;;8397861;28;19921;-73
2021/11/13 15:21:34;;;;;;;;;;;13.50;99.90;;;;;;8411441;28;20355;-73
2021/11/13 15:25:37;;;;;;;;;;;13.50;99.90;;;;;;8390906;28;21341;-73
2021/11/13 15:29:41;;;;;;;;;;;13.40;99.90;;;;;;8395749;28;19935;-72
2021/11/13 15:33:43;;;;;;;;;;;13.40;99.90;;;;;;8401699;28;19928;-73
2021/11/13 15:37:45;;;;;;;;;;;13.40;99.90;;;;;;8391497;28;19924;-72
2021/11/13 15:41:47;;;;;;;;;;;13.30;99.90;;;;;;8400643;28;20007;-72
2021/11/13 15:45:51;;;;;;;;;;;13.30;99.90;;;;;;8397205;28;19931;-72
2021/11/13 15:49:58;;;;;;;;;;;13.20;99.90;;;;;;8397291;28;20320;-73
2021/11/13 15:54:01;;;;;;;;;;;13.10;99.90;;;;;;8394839;28;19930;-73
2021/11/13 15:58:03;;;;;;;;;;;13.10;99.90;;;;;;8398300;28;19931;-73
2021/11/13 16:02:04;;;;;;;;;;;13.10;99.90;;;;;;8395647;28;19924;-73
2021/11/13 16:06:06;;;;;;;;;;;13.10;99.90;;;;;;8392854;28;19946;-73
2021/11/13 16:10:09;;;;;;;;;;;13.00;99.90;;;;;;8400211;28;20268;-73
2021/11/13 16:14:11;;;;;;;;;;;13.00;99.90;;;;;;8388147;28;19928;-73
2021/11/13 16:18:13;;;;;;;;;;;13.00;99.90;;;;;;8382407;28;19947;-73
2021/11/13 16:22:15;;;;;;;;;;;12.90;99.90;;;;;;8384270;28;20276;-72
2021/11/13 16:26:17;;;;;;;;;;;12.90;99.90;;;;;;8385716;28;19920;-72
2021/11/13 16:30:19;;;;;;;;;;;12.80;99.90;;;;;;8389168;28;20402;-72
2021/11/13 16:34:21;;;;;;;;;;;12.80;99.90;;;;;;8393057;28;19923;-73
2021/11/13 16:38:24;;;;;;;;;;;12.80;99.90;;;;;;8421838;27;19928;-72
2021/11/13 16:42:25;;;;;;;;;;;12.70;99.90;;;;;;8408927;28;19947;-73
2021/11/13 16:46:28;;;;;;;;;;;12.70;99.90;;;;;;8390407;28;19920;-72
2021/11/13 16:50:32;;;;;;;;;;;12.70;99.90;;;;;;8402945;28;19924;-73
2021/11/13 16:54:34;;;;;;;;;;;12.60;99.90;;;;;;8386570;28;19920;-73
2021/11/13 16:58:37;;;;;;;;;;;12.60;99.90;;;;;;8386523;28;19924;-73
2021/11/13 17:02:38;;;;;;;;;;;12.50;99.90;;;;;;8389016;28;19924;-73
2021/11/13 17:06:41;;;;;;;;;;;12.50;99.90;;;;;;8387456;28;19924;-73
2021/11/13 17:10:43;;;;;;;;;;;12.50;99.90;;;;;;8389997;28;20400;-73
2021/11/13 17:14:47;;;;;;;;;;;12.50;99.90;;;;;;8404685;28;19924;-73
2021/11/13 17:18:48;;;;;;;;;;;12.50;99.90;;;;;;8423201;27;20267;-73
2021/11/13 17:22:51;;;;;;;;;;;12.50;99.90;;;;;;8383501;28;20342;-72
2021/11/13 17:26:53;;;;;;;;;;;12.40;99.90;;;;;;8404064;27;19928;-73
2021/11/13 17:30:55;;;;;;;;;;;12.40;99.90;;;;;;8384366;28;19981;-73
2021/11/13 17:34:56;;;;;;;;;;;12.40;99.90;;;;;;8389357;28;19928;-72
2021/11/13 17:38:58;;;;;;;;;;;12.40;99.90;;;;;;8423069;27;20291;-73
2021/11/13 17:43:00;;;;;;;;;;;12.30;99.90;;;;;;8386624;28;19931;-73
2021/11/13 17:47:03;;;;;;;;;;;12.30;99.90;;;;;;8386225;28;20265;-73
2021/11/13 17:51:05;;;;;;;;;;;12.30;99.90;;;;;;8386725;28;20300;-72
2021/11/13 17:55:07;;;;;;;;;;;12.30;99.90;;;;;;8383904;28;20296;-72
2021/11/13 17:59:09;;;;;;;;;;;12.30;99.90;;;;;;8393442;28;19943;-73
2021/11/13 18:03:12;;;;;;;;;;;12.30;99.90;;;;;;8384440;28;19924;-73
2021/11/13 18:07:14;;;;;;;;;;;12.30;99.90;;;;;;8384739;28;20230;-73
2021/11/13 18:11:17;;;;;;;;;;;12.30;99.90;;;;;;8391414;28;20340;-72
2021/11/13 18:15:19;;;;;;;;;;;12.20;99.90;;;;;;8392027;28;19928;-73
2021/11/13 18:19:22;;;;;;;;;;;12.20;99.90;;;;;;8400234;28;20511;-72
2021/11/13 18:23:25;;;;;;;;;;;12.20;99.90;;;;;;8400649;28;20102;-72
2021/11/13 18:27:28;;;;;;;;;;;12.20;99.90;;;;;;8399732;28;19924;-72
2021/11/13 18:31:31;;;;;;;;;;;12.20;99.90;;;;;;8398660;28;20019;-72
2021/11/13 18:35:33;;;;;;;;;;;12.20;99.90;;;;;;8390546;28;19931;-72
2021/11/13 18:39:35;;;;;;;;;;;12.10;99.90;;;;;;8393917;28;19920;-72
2021/11/13 18:43:36;;;;;;;;;;;12.10;99.90;;;;;;8394816;28;19924;-72
2021/11/13 18:47:38;;;;;;;;;;;12.10;99.90;;;;;;8390021;28;19973;-73
2021/11/13 18:51:41;;;;;;;;;;;12.10;99.90;;;;;;8399472;28;19920;-72
2021/11/13 18:55:42;;;;;;;;;;;12.10;99.90;;;;;;8394320;28;19920;-74
2021/11/13 18:59:44;;;;;;;;;;;12.10;99.90;;;;;;8394759;28;19990;-72
2021/11/13 19:03:46;;;;;;;;;;;12.00;99.90;;;;;;8392146;28;19927;-72
2021/11/13 19:07:48;;;;;;;;;;;12.00;99.90;;;;;;8388453;28;19981;-72
2021/11/13 19:11:50;;;;;;;;;;;12.00;99.90;;;;;;8393070;28;19927;-72
2021/11/13 19:15:51;;;;;;;;;;;12.00;99.90;;;;;;8388775;28;19920;-73
2021/11/13 19:19:53;;;;;;;;;;;12.00;99.90;;;;;;8402394;28;19924;-73
2021/11/13 19:23:55;;;;;;;;;;;12.00;99.90;;;;;;8390993;28;19932;-73
2021/11/13 19:27:57;;;;;;;;;;;11.90;99.90;;;;;;8388252;28;19928;-73
2021/11/13 19:31:59;;;;;;;;;;;11.90;99.90;;;;;;8389870;28;19924;-73
2021/11/13 19:36:20;;;;;;;;;;;11.90;99.90;;;;;;8393953;28;19920;-73
2021/11/13 19:40:23;;;;;;;;;;;11.90;99.90;;;;;;8390826;28;19928;-72
2021/11/13 19:44:25;;;;;;;;;;;11.80;99.90;;;;;;8390053;28;19927;-73
2021/11/13 19:48:27;;;;;;;;;;;11.80;99.90;;;;;;8389514;28;19928;-74
2021/11/13 19:52:29;;;;;;;;;;;11.70;99.90;;;;;;8391950;28;19924;-72
2021/11/13 19:56:31;;;;;;;;;;;11.70;99.90;;;;;;8393770;28;19931;-73
2021/11/13 20:00:33;;;;;;;;;;;11.60;99.90;;;;;;8386509;28;19920;-72
2021/11/13 20:04:35;;;;;;;;;;;11.60;99.90;;;;;;8393994;28;19950;-72
2021/11/13 20:08:37;;;;;;;;;;;11.60;99.90;;;;;;8400057;28;19928;-72
2021/11/13 20:12:39;;;;;;;;;;;11.50;99.90;;;;;;8388766;28;20379;-73
2021/11/13 20:16:40;;;;;;;;;;;11.50;99.90;;;;;;8419834;27;19920;-72
2021/11/13 20:20:42;;;;;;;;;;;11.50;99.90;;;;;;8387621;28;19928;-73
2021/11/13 20:24:44;;;;;;;;;;;11.40;99.90;;;;;;8399124;28;19928;-72
2021/11/13 20:28:46;;;;;;;;;;;11.40;99.90;;;;;;8388738;28;19920;-72
2021/11/13 20:32:48;;;;;;;;;;;11.40;99.90;;;;;;8390717;28;19921;-73
2021/11/13 20:36:50;;;;;;;;;;;11.40;99.90;;;;;;8385937;28;19927;-72
2021/11/13 20:40:53;;;;;;;;;;;11.40;99.90;;;;;;8387248;28;20407;-73
2021/11/13 20:44:55;;;;;;;;;;;11.40;99.90;;;;;;8390049;28;19928;-73
2021/11/13 20:48:57;;;;;;;;;;;11.40;99.90;;;;;;8387340;28;19969;-72
2021/11/13 20:52:58;;;;;;;;;;;11.40;99.90;;;;;;8388460;28;19924;-73
2021/11/13 20:57:00;;;;;;;;;;;11.40;99.90;;;;;;8392777;28;19920;-73
2021/11/13 21:01:04;;;;;;;;;;;11.40;99.90;;;;;;8389371;28;19928;-72
2021/11/13 21:05:06;;;;;;;;;;;11.40;99.90;;;;;;8386186;28;19973;-72
2021/11/13 21:09:07;;;;;;;;;;;11.40;99.90;;;;;;8387261;28;19960;-73
2021/11/13 21:13:11;;;;;;;;;;;11.40;99.90;;;;;;8390203;28;19920;-73
2021/11/13 21:17:13;;;;;;;;;;;11.40;99.90;;;;;;8394003;28;19927;-73
2021/11/13 21:21:19;;;;;;;;;;;11.40;99.90;;;;;;8395233;28;19939;-73
2021/11/13 21:25:21;;;;;;;;;;;11.40;99.90;;;;;;8395587;28;19921;-73
2021/11/13 21:29:23;;;;;;;;;;;11.40;99.90;;;;;;8389542;28;19927;-73
2021/11/13 21:33:25;;;;;;;;;;;11.40;99.90;;;;;;8398298;28;19963;-73
2021/11/13 21:37:26;;;;;;;;;;;11.40;99.90;;;;;;8390450;28;19925;-72
2021/11/13 21:41:28;;;;;;;;;;;11.30;99.90;;;;;;8417391;28;19932;-72
2021/11/13 21:45:31;;;;;;;;;;;11.30;99.90;;;;;;8388404;28;19921;-73
2021/11/13 21:49:34;;;;;;;;;;;11.30;99.90;;;;;;8386814;28;20256;-73
2021/11/13 21:53:35;;;;;;;;;;;11.30;99.90;;;;;;8389022;28;19920;-72
2021/11/13 21:57:37;;;;;;;;;;;11.30;99.90;;;;;;8400738;28;19929;-73
2021/11/13 22:01:39;;;;;;;;;;;11.30;99.90;;;;;;8399046;28;19920;-72
2021/11/13 22:05:41;;;;;;;;;;;11.30;99.90;;;;;;8416960;28;19924;-72
2021/11/13 22:09:43;;;;;;;;;;;11.30;99.90;;;;;;8430393;28;19927;-72
2021/11/13 22:13:44;;;;;;;;;;;11.30;99.90;;;;;;8426678;28;19958;-72
2021/11/13 22:17:46;;;;;;;;;;;11.20;99.90;;;;;;8411304;28;19999;-73
2021/11/13 22:21:48;;;;;;;;;;;11.20;99.90;;;;;;8432924;28;19987;-73
2021/11/13 22:25:50;;;;;;;;;;;11.20;99.90;;;;;;8411146;28;20398;-72
2021/11/13 22:29:52;;;;;;;;;;;11.20;99.90;;;;;;8434870;28;19977;-72
2021/11/13 22:33:54;;;;;;;;;;;11.20;99.90;;;;;;8436509;28;19924;-72
2021/11/13 22:37:56;;;;;;;;;;;11.20;99.90;;;;;;8423143;28;19923;-73
2021/11/13 22:41:57;;;;;;;;;;;11.20;99.90;;;;;;8418930;28;20389;-72
2021/11/13 22:46:01;;;;;;;;;;;11.20;99.90;;;;;;8425089;28;19927;-73
2021/11/13 22:50:03;;;;;;;;;;;11.20;99.90;;;;;;8428588;28;20017;-72